Time;durP1;ratioP1;P1;durP2;ratioP2;P2;SDS_P1;SDS_P2;PMS_P1;PMS_P2;Temp;Humidity;BMP_temperature;BMP_pressure;BME280_temperature;BME280_humidity;BME280_pressure;Samples;Min_cycle;Max_cycle;Signal;HPM_P1;HPM_P2
2022/03/19 00:01:00;;;;;;;40.20;31.70;;;;;;;;;;5074357;28;20442;-69
2022/03/19 00:03:27;;;;;;;43.47;31.83;;;;;;;;;;5074169;28;20406;-70
2022/03/19 00:05:53;;;;;;;44.73;32.77;;;;;;;;;;5074381;28;20417;-70
2022/03/19 00:08:19;;;;;;;44.37;32.23;;;;;;;;;;5074260;28;20413;-70
2022/03/19 00:10:45;;;;;;;40.57;30.10;;;;;;;;;;5072641;28;20480;-70
2022/03/19 00:13:12;;;;;;;41.93;32.13;;;;;;;;;;5073915;28;20406;-70
2022/03/19 00:15:38;;;;;;;44.70;31.73;;;;;;;;;;5073926;28;20399;-70
2022/03/19 00:18:05;;;;;;;43.17;31.53;;;;;;;;;;5073848;28;20414;-70
2022/03/19 00:20:31;;;;;;;42.07;31.20;;;;;;;;;;5073888;28;20441;-69
2022/03/19 00:22:57;;;;;;;41.30;30.30;;;;;;;;;;5073267;28;20890;-69
2022/03/19 00:25:23;;;;;;;37.80;29.80;;;;;;;;;;5073384;28;20417;-71
2022/03/19 00:27:49;;;;;;;43.63;30.80;;;;;;;;;;5073785;28;20432;-70
2022/03/19 00:30:15;;;;;;;42.13;31.20;;;;;;;;;;5073650;28;20478;-70
2022/03/19 00:32:41;;;;;;;49.73;33.60;;;;;;;;;;5072291;28;20440;-70
2022/03/19 00:35:08;;;;;;;40.00;30.63;;;;;;;;;;5073686;28;20751;-69
2022/03/19 00:37:42;;;;;;;44.97;31.93;;;;;;;;;;5073432;28;20519;-69
2022/03/19 00:40:09;;;;;;;46.97;31.60;;;;;;;;;;5072722;28;20820;-68
2022/03/19 00:42:36;;;;;;;45.00;31.30;;;;;;;;;;5073562;28;20837;-69
2022/03/19 00:45:02;;;;;;;39.03;30.33;;;;;;;;;;5073810;28;20406;-69
2022/03/19 00:47:28;;;;;;;37.97;29.17;;;;;;;;;;5073479;28;20418;-68
2022/03/19 00:49:54;;;;;;;45.30;29.53;;;;;;;;;;5073437;28;20450;-68
2022/03/19 00:52:20;;;;;;;42.73;30.27;;;;;;;;;;5073785;28;20422;-69
2022/03/19 00:54:46;;;;;;;43.03;30.40;;;;;;;;;;5072212;28;20409;-70
2022/03/19 00:57:12;;;;;;;44.20;29.17;;;;;;;;;;5073404;28;20442;-70
2022/03/19 00:59:38;;;;;;;37.40;29.10;;;;;;;;;;5073392;28;20409;-68
2022/03/19 01:02:04;;;;;;;40.10;30.33;;;;;;;;;;5073351;28;20423;-71
2022/03/19 01:04:30;;;;;;;38.60;28.80;;;;;;;;;;5073346;28;20489;-70
2022/03/19 01:06:56;;;;;;;39.40;30.00;;;;;;;;;;5073310;28;20545;-70
2022/03/19 01:09:22;;;;;;;41.47;29.73;;;;;;;;;;5073306;28;20406;-68
2022/03/19 01:11:48;;;;;;;36.80;28.13;;;;;;;;;;5073183;28;20465;-70
2022/03/19 01:14:14;;;;;;;39.43;26.77;;;;;;;;;;5073491;28;20406;-70
2022/03/19 01:16:40;;;;;;;40.57;27.70;;;;;;;;;;5073177;28;20418;-70
2022/03/19 01:19:06;;;;;;;42.43;28.90;;;;;;;;;;5073285;28;20402;-69
2022/03/19 01:21:32;;;;;;;37.60;27.10;;;;;;;;;;5073444;28;20410;-71
2022/03/19 01:23:58;;;;;;;35.30;26.40;;;;;;;;;;5073226;28;20429;-70
2022/03/19 01:26:24;;;;;;;37.30;27.70;;;;;;;;;;5073119;28;20411;-70
2022/03/19 01:28:50;;;;;;;35.17;27.70;;;;;;;;;;5073211;28;20520;-70
2022/03/19 01:31:17;;;;;;;35.67;26.60;;;;;;;;;;5073026;28;20573;-70
2022/03/19 01:33:43;;;;;;;41.20;28.90;;;;;;;;;;5073108;28;20398;-71
2022/03/19 01:36:09;;;;;;;34.37;26.23;;;;;;;;;;5076284;28;20421;-70
2022/03/19 01:38:35;;;;;;;39.17;28.10;;;;;;;;;;5076853;28;20831;-70
2022/03/19 01:41:01;;;;;;;38.47;28.80;;;;;;;;;;5075980;28;20954;-68
2022/03/19 01:43:27;;;;;;;35.20;26.57;;;;;;;;;;5076844;28;20432;-69
2022/03/19 01:45:53;;;;;;;37.77;27.83;;;;;;;;;;5076749;28;20771;-69
2022/03/19 01:48:19;;;;;;;35.60;26.40;;;;;;;;;;5076765;28;20410;-70
2022/03/19 01:50:45;;;;;;;39.70;27.50;;;;;;;;;;5076638;28;20941;-70
2022/03/19 01:53:11;;;;;;;36.17;27.10;;;;;;;;;;5076627;28;20405;-70
2022/03/19 01:55:38;;;;;;;37.87;27.23;;;;;;;;;;5076880;28;20410;-70
2022/03/19 01:58:04;;;;;;;43.10;28.13;;;;;;;;;;5076524;28;20452;-70
2022/03/19 02:00:30;;;;;;;42.97;28.50;;;;;;;;;;5076535;28;20417;-71
2022/03/19 02:02:57;;;;;;;35.63;27.50;;;;;;;;;;5076346;28;20421;-71
2022/03/19 02:05:24;;;;;;;37.93;27.93;;;;;;;;;;5076396;28;20406;-69
2022/03/19 02:07:51;;;;;;;35.97;27.07;;;;;;;;;;5075135;28;20457;-68
2022/03/19 02:10:18;;;;;;;34.70;27.17;;;;;;;;;;5076223;28;20459;-71
2022/03/19 02:12:44;;;;;;;38.10;26.63;;;;;;;;;;5074967;28;20773;-69
2022/03/19 02:15:11;;;;;;;42.90;26.17;;;;;;;;;;5076549;28;20459;-68
2022/03/19 02:17:37;;;;;;;36.30;26.10;;;;;;;;;;5076142;28;20504;-68
2022/03/19 02:20:04;;;;;;;36.93;25.80;;;;;;;;;;5076166;28;20511;-70
2022/03/19 02:22:30;;;;;;;30.30;24.57;;;;;;;;;;5076093;28;20417;-70
2022/03/19 02:27:42;;;;;;;36.93;27.40;;;;;;;;;;5076315;28;20450;-70
2022/03/19 02:30:11;;;;;;;34.03;26.30;;;;;;;;;;5076108;28;20465;-70
2022/03/19 02:32:40;;;;;;;36.70;27.43;;;;;;;;;;5075870;28;20479;-70
2022/03/19 02:35:07;;;;;;;35.93;26.17;;;;;;;;;;5075954;28;20498;-69
2022/03/19 02:37:43;;;;;;;37.10;26.70;;;;;;;;;;5075785;28;20465;-71
2022/03/19 02:40:10;;;;;;;33.17;25.13;;;;;;;;;;5076083;28;20449;-69
2022/03/19 02:42:36;;;;;;;35.50;27.23;;;;;;;;;;5075678;28;20464;-70
2022/03/19 02:45:03;;;;;;;38.83;27.37;;;;;;;;;;5075651;28;20407;-70
2022/03/19 02:47:29;;;;;;;36.57;26.17;;;;;;;;;;5074632;28;20415;-70
2022/03/19 02:49:55;;;;;;;36.20;27.30;;;;;;;;;;5075450;28;20545;-71
2022/03/19 02:52:21;;;;;;;41.50;29.53;;;;;;;;;;5074284;28;20799;-71
2022/03/19 02:54:47;;;;;;;35.13;27.10;;;;;;;;;;5074528;28;20505;-70
2022/03/19 02:57:13;;;;;;;38.70;28.70;;;;;;;;;;5075476;28;20406;-70
2022/03/19 02:59:39;;;;;;;39.13;27.80;;;;;;;;;;5075739;28;20417;-70
2022/03/19 03:02:07;;;;;;;43.73;29.57;;;;;;;;;;5075437;28;20849;-71
2022/03/19 03:04:34;;;;;;;41.50;29.20;;;;;;;;;;5075592;28;20414;-71
2022/03/19 03:07:01;;;;;;;42.90;29.80;;;;;;;;;;5075212;28;20402;-71
2022/03/19 03:09:28;;;;;;;46.03;30.83;;;;;;;;;;5075264;28;20402;-68
2022/03/19 03:11:54;;;;;;;44.17;29.60;;;;;;;;;;5075364;28;20476;-70
2022/03/19 03:14:21;;;;;;;39.63;29.17;;;;;;;;;;5075319;28;20430;-71
2022/03/19 03:16:47;;;;;;;42.63;29.10;;;;;;;;;;5075052;28;20429;-70
2022/03/19 03:19:14;;;;;;;40.87;29.27;;;;;;;;;;5075038;28;20414;-70
2022/03/19 03:21:40;;;;;;;41.87;30.60;;;;;;;;;;5074921;28;20460;-68
2022/03/19 03:24:06;;;;;;;38.40;28.97;;;;;;;;;;5073677;28;20464;-72
2022/03/19 03:26:32;;;;;;;44.00;30.77;;;;;;;;;;5074800;28;20437;-69
2022/03/19 03:28:58;;;;;;;37.80;29.13;;;;;;;;;;5074882;28;20406;-69
2022/03/19 03:31:24;;;;;;;42.70;31.30;;;;;;;;;;5074711;28;20480;-70
2022/03/19 03:33:50;;;;;;;44.13;31.23;;;;;;;;;;5074772;28;20410;-70
2022/03/19 03:36:16;;;;;;;44.20;32.00;;;;;;;;;;5074686;28;20434;-71
2022/03/19 03:38:42;;;;;;;44.87;30.90;;;;;;;;;;5074545;28;21156;-70
2022/03/19 03:41:08;;;;;;;43.63;31.60;;;;;;;;;;5074589;28;20437;-70
2022/03/19 03:43:34;;;;;;;49.33;32.50;;;;;;;;;;5074501;28;20417;-70
2022/03/19 03:46:01;;;;;;;45.03;32.63;;;;;;;;;;5074361;28;20402;-69
2022/03/19 03:48:27;;;;;;;47.70;33.00;;;;;;;;;;5074422;28;20548;-71
2022/03/19 03:50:55;;;;;;;43.03;30.70;;;;;;;;;;5074350;28;20556;-70
2022/03/19 03:53:23;;;;;;;46.00;33.23;;;;;;;;;;5074353;28;20410;-70
2022/03/19 03:55:49;;;;;;;46.37;34.27;;;;;;;;;;5074219;28;20447;-69
2022/03/19 03:58:15;;;;;;;54.50;36.33;;;;;;;;;;5074060;28;20402;-70
2022/03/19 04:00:41;;;;;;;48.47;35.87;;;;;;;;;;5074189;28;20406;-70
2022/03/19 04:03:08;;;;;;;49.50;35.20;;;;;;;;;;5074020;28;20406;-71
2022/03/19 04:05:34;;;;;;;56.90;38.80;;;;;;;;;;5072920;28;20896;-70
2022/03/19 04:08:01;;;;;;;58.10;38.43;;;;;;;;;;5074030;28;20402;-70
2022/03/19 04:10:27;;;;;;;60.97;40.37;;;;;;;;;;5073976;28;20473;-71
2022/03/19 04:12:53;;;;;;;59.53;40.40;;;;;;;;;;5074209;28;20770;-69
2022/03/19 04:15:19;;;;;;;64.40;43.07;;;;;;;;;;5074148;28;20410;-71
2022/03/19 04:17:45;;;;;;;67.50;41.80;;;;;;;;;;5074223;28;20850;-71
2022/03/19 04:20:13;;;;;;;64.40;43.17;;;;;;;;;;5073884;28;20398;-69
2022/03/19 04:22:43;;;;;;;68.77;43.60;;;;;;;;;;5073916;28;20425;-70
2022/03/19 04:25:11;;;;;;;66.23;44.00;;;;;;;;;;5073983;28;20394;-70
2022/03/19 04:27:38;;;;;;;67.47;42.80;;;;;;;;;;5073847;28;20883;-70
2022/03/19 04:30:04;;;;;;;67.70;44.30;;;;;;;;;;5073750;28;20454;-70
2022/03/19 04:32:30;;;;;;;65.07;44.30;;;;;;;;;;5073705;28;20919;-69
2022/03/19 04:34:57;;;;;;;71.47;45.80;;;;;;;;;;5073674;28;20402;-68
2022/03/19 04:37:23;;;;;;;73.37;47.20;;;;;;;;;;5073715;28;20437;-68
2022/03/19 04:39:49;;;;;;;72.00;47.10;;;;;;;;;;5073404;28;20474;-71
2022/03/19 04:42:16;;;;;;;75.33;48.43;;;;;;;;;;5073586;28;20425;-69
2022/03/19 04:44:42;;;;;;;74.37;46.83;;;;;;;;;;5073624;28;20877;-68
2022/03/19 04:47:08;;;;;;;73.60;47.90;;;;;;;;;;5073523;28;20429;-70
2022/03/19 04:49:34;;;;;;;72.50;47.43;;;;;;;;;;5073541;28;20380;-69
2022/03/19 04:52:00;;;;;;;75.37;47.20;;;;;;;;;;5073387;28;20473;-71
2022/03/19 04:54:26;;;;;;;71.97;46.77;;;;;;;;;;5073439;28;20402;-68
2022/03/19 04:56:52;;;;;;;76.17;46.70;;;;;;;;;;5073438;28;20414;-70
2022/03/19 04:59:18;;;;;;;75.27;48.33;;;;;;;;;;5073435;28;20413;-68
2022/03/19 05:01:44;;;;;;;77.80;47.37;;;;;;;;;;5073369;28;20421;-69
2022/03/19 05:04:10;;;;;;;82.63;47.30;;;;;;;;;;5073397;28;20410;-70
2022/03/19 05:06:36;;;;;;;77.20;45.60;;;;;;;;;;5073313;28;20417;-70
2022/03/19 05:11:47;;;;;;;72.57;46.90;;;;;;;;;;5077456;28;20476;-67
2022/03/19 05:14:13;;;;;;;76.13;46.27;;;;;;;;;;5077374;28;20402;-70
2022/03/19 05:16:39;;;;;;;66.70;44.30;;;;;;;;;;5077391;28;20435;-70
2022/03/19 05:19:05;;;;;;;73.73;46.83;;;;;;;;;;5077446;28;20377;-66
2022/03/19 05:21:32;;;;;;;70.60;44.93;;;;;;;;;;5077335;28;20402;-69
2022/03/19 05:23:58;;;;;;;71.93;45.30;;;;;;;;;;5077653;28;20401;-68
2022/03/19 05:26:24;;;;;;;68.90;43.80;;;;;;;;;;5077153;28;20406;-69
2022/03/19 05:28:50;;;;;;;66.10;44.30;;;;;;;;;;5077143;28;20463;-69
2022/03/19 05:31:16;;;;;;;67.63;43.27;;;;;;;;;;5077083;28;20887;-69
2022/03/19 05:36:27;;;;;;;75.40;47.17;;;;;;;;;;5077318;28;20467;-69
2022/03/19 05:38:53;;;;;;;76.73;46.77;;;;;;;;;;5076725;28;20493;-68
2022/03/19 05:41:19;;;;;;;72.80;45.90;;;;;;;;;;5075684;28;20490;-70
2022/03/19 05:43:46;;;;;;;69.60;44.93;;;;;;;;;;5076797;28;20458;-70
2022/03/19 05:46:12;;;;;;;73.17;47.20;;;;;;;;;;5076782;28;20402;-70
2022/03/19 05:48:38;;;;;;;71.00;45.97;;;;;;;;;;5076717;28;20418;-68
2022/03/19 05:51:05;;;;;;;74.67;48.50;;;;;;;;;;5076659;28;20465;-68
2022/03/19 05:53:31;;;;;;;74.47;47.30;;;;;;;;;;5075369;28;21050;-69
2022/03/19 05:55:57;;;;;;;77.00;48.60;;;;;;;;;;5076662;28;20889;-69
2022/03/19 05:58:23;;;;;;;107.60;61.93;;;;;;;;;;5076600;28;20389;-69
2022/03/19 06:00:49;;;;;;;77.57;47.60;;;;;;;;;;5076541;28;20461;-70
2022/03/19 06:03:15;;;;;;;75.20;48.40;;;;;;;;;;5076496;28;20418;-70
2022/03/19 06:05:40;;;;;;;102.57;63.93;;;;;;;;;;5076356;28;20458;-70
2022/03/19 06:08:06;;;;;;;87.87;54.47;;;;;;;;;;5076551;28;20410;-71
2022/03/19 06:10:35;;;;;;;74.70;47.50;;;;;;;;;;5076357;28;20461;-72
2022/03/19 06:13:02;;;;;;;75.53;47.30;;;;;;;;;;5076360;28;21064;-71
2022/03/19 06:15:28;;;;;;;79.40;50.23;;;;;;;;;;5076342;28;20365;-70
2022/03/19 06:17:54;;;;;;;75.17;48.27;;;;;;;;;;5076159;28;20801;-72
2022/03/19 06:20:22;;;;;;;78.27;48.60;;;;;;;;;;5076226;28;20532;-72
2022/03/19 06:22:49;;;;;;;76.40;48.13;;;;;;;;;;5076190;28;20887;-72
2022/03/19 06:25:15;;;;;;;71.10;46.07;;;;;;;;;;5074743;28;20495;-73
2022/03/19 06:27:40;;;;;;;75.80;47.67;;;;;;;;;;5076018;28;20489;-69
2022/03/19 06:30:08;;;;;;;73.97;46.33;;;;;;;;;;5075879;28;20813;-70
2022/03/19 06:32:36;;;;;;;69.50;46.43;;;;;;;;;;5075832;28;20426;-73
2022/03/19 06:35:02;;;;;;;75.83;47.50;;;;;;;;;;5075963;28;20394;-68
2022/03/19 06:37:29;;;;;;;69.00;45.67;;;;;;;;;;5075943;28;20425;-70
2022/03/19 06:39:57;;;;;;;77.73;49.07;;;;;;;;;;5075846;28;20485;-67
2022/03/19 06:42:23;;;;;;;67.43;45.50;;;;;;;;;;5075789;28;20471;-69
2022/03/19 06:44:49;;;;;;;70.00;45.43;;;;;;;;;;5075895;28;20459;-68
2022/03/19 06:47:15;;;;;;;72.23;47.87;;;;;;;;;;5075820;28;20391;-71
2022/03/19 06:49:42;;;;;;;70.57;45.50;;;;;;;;;;5075590;28;20421;-69
2022/03/19 06:52:09;;;;;;;82.03;46.63;;;;;;;;;;5075547;28;20440;-67
2022/03/19 06:54:35;;;;;;;71.47;46.77;;;;;;;;;;5075868;28;20401;-69
2022/03/19 06:57:02;;;;;;;73.60;48.73;;;;;;;;;;5075441;28;20410;-69
2022/03/19 06:59:28;;;;;;;71.17;47.73;;;;;;;;;;5075406;28;20761;-71
2022/03/19 07:01:55;;;;;;;92.03;56.27;;;;;;;;;;5075361;28;20923;-69
2022/03/19 07:04:21;;;;;;;71.47;47.03;;;;;;;;;;5075306;28;20403;-72
2022/03/19 07:06:47;;;;;;;72.23;48.00;;;;;;;;;;5075340;28;20413;-67
2022/03/19 07:09:13;;;;;;;69.63;46.90;;;;;;;;;;5075244;28;20381;-69
2022/03/19 07:11:39;;;;;;;66.63;47.20;;;;;;;;;;5075186;28;20545;-73
2022/03/19 07:14:05;;;;;;;73.70;48.00;;;;;;;;;;5075148;28;20398;-70
2022/03/19 07:16:31;;;;;;;73.00;47.13;;;;;;;;;;5075127;28;20457;-69
2022/03/19 07:18:58;;;;;;;75.00;47.63;;;;;;;;;;5075043;28;20409;-70
2022/03/19 07:21:24;;;;;;;71.50;47.80;;;;;;;;;;5075028;28;20418;-72
2022/03/19 07:23:50;;;;;;;72.47;45.87;;;;;;;;;;5073706;28;20818;-71
2022/03/19 07:26:16;;;;;;;75.90;49.17;;;;;;;;;;5074897;28;20418;-69
2022/03/19 07:28:43;;;;;;;69.97;47.73;;;;;;;;;;5074848;28;20409;-69
2022/03/19 07:31:09;;;;;;;76.23;48.53;;;;;;;;;;5074955;28;20552;-71
2022/03/19 07:33:35;;;;;;;69.27;45.20;;;;;;;;;;5072849;28;20417;-71
2022/03/19 07:36:04;;;;;;;72.87;48.40;;;;;;;;;;5074687;28;20414;-72
2022/03/19 07:38:33;;;;;;;68.23;46.13;;;;;;;;;;5074482;28;20461;-71
2022/03/19 07:43:44;;;;;;;76.70;48.17;;;;;;;;;;5074541;28;20384;-74
2022/03/19 07:46:11;;;;;;;67.37;46.10;;;;;;;;;;5074434;28;20414;-69
2022/03/19 07:48:37;;;;;;;71.90;46.57;;;;;;;;;;5073171;28;20467;-73
2022/03/19 07:51:03;;;;;;;67.60;45.80;;;;;;;;;;5072976;28;20481;-72
2022/03/19 07:53:29;;;;;;;71.53;46.53;;;;;;;;;;5074419;28;20481;-72
2022/03/19 07:55:55;;;;;;;65.50;44.80;;;;;;;;;;5074238;28;20831;-72
2022/03/19 07:58:22;;;;;;;71.90;47.70;;;;;;;;;;5073000;28;20457;-71
2022/03/19 08:00:48;;;;;;;63.60;44.90;;;;;;;;;;5074192;28;20947;-69
2022/03/19 08:03:14;;;;;;;64.10;43.53;;;;;;;;;;5074099;28;20410;-72
2022/03/19 08:05:41;;;;;;;69.43;44.17;;;;;;;;;;5072799;28;20913;-73
2022/03/19 08:08:07;;;;;;;61.13;43.37;;;;;;;;;;5074239;28;20409;-73
2022/03/19 08:10:34;;;;;;;60.43;43.50;;;;;;;;;;5073916;28;20493;-73
2022/03/19 08:13:04;;;;;;;64.60;44.27;;;;;;;;;;5073954;28;20409;-69
2022/03/19 08:15:30;;;;;;;58.57;42.30;;;;;;;;;;5073824;28;20391;-72
2022/03/19 08:17:57;;;;;;;60.50;40.43;;;;;;;;;;5072663;28;20480;-72
2022/03/19 08:20:23;;;;;;;60.40;41.73;;;;;;;;;;5073831;28;20409;-73
2022/03/19 08:22:49;;;;;;;58.77;41.80;;;;;;;;;;5074128;28;20409;-72
2022/03/19 08:25:15;;;;;;;61.67;42.20;;;;;;;;;;5073976;28;20472;-72
2022/03/19 08:27:41;;;;;;;57.30;41.67;;;;;;;;;;5073858;28;20889;-71
2022/03/19 08:30:08;;;;;;;57.90;40.07;;;;;;;;;;5073696;28;20406;-73
2022/03/19 08:32:34;;;;;;;53.67;38.77;;;;;;;;;;5073531;28;20476;-72
2022/03/19 08:35:01;;;;;;;61.83;39.77;;;;;;;;;;5073477;28;20460;-70
2022/03/19 08:37:27;;;;;;;57.67;41.67;;;;;;;;;;5073318;28;20426;-73
2022/03/19 08:42:38;;;;;;;54.20;39.93;;;;;;;;;;5073532;28;20439;-69
2022/03/19 08:45:04;;;;;;;51.90;37.90;;;;;;;;;;5072749;28;20425;-68
2022/03/19 08:47:30;;;;;;;50.37;38.00;;;;;;;;;;5073377;28;20418;-68
2022/03/19 08:49:56;;;;;;;56.07;36.87;;;;;;;;;;5073353;28;20397;-68
2022/03/19 08:52:22;;;;;;;55.20;39.60;;;;;;;;;;5073387;28;20430;-69
2022/03/19 08:54:48;;;;;;;54.80;37.93;;;;;;;;;;5073379;28;20542;-67
2022/03/19 08:57:14;;;;;;;49.47;37.43;;;;;;;;;;5073274;28;20851;-69
2022/03/19 08:59:41;;;;;;;49.50;37.63;;;;;;;;;;5073266;28;20398;-67
2022/03/19 09:02:07;;;;;;;49.53;36.53;;;;;;;;;;5073120;28;20426;-68
2022/03/19 09:04:32;;;;;;;55.97;40.30;;;;;;;;;;5071915;28;20467;-69
2022/03/19 09:06:59;;;;;;;49.53;36.50;;;;;;;;;;5073098;28;20509;-70
2022/03/19 09:09:25;;;;;;;45.70;34.50;;;;;;;;;;5073191;28;20402;-72
2022/03/19 09:11:51;;;;;;;43.90;33.73;;;;;;;;;;5073111;28;20552;-67
2022/03/19 09:14:18;;;;;;;40.23;30.37;;;;;;;;;;5073149;28;20398;-70
2022/03/19 09:16:44;;;;;;;39.47;29.00;;;;;;;;;;5071877;28;20437;-68
2022/03/19 09:19:10;;;;;;;44.00;30.73;;;;;;;;;;5073085;28;20402;-69
2022/03/19 09:21:36;;;;;;;36.03;28.07;;;;;;;;;;5073072;28;20418;-68
2022/03/19 09:24:03;;;;;;;42.70;29.00;;;;;;;;;;5072906;28;20743;-67
2022/03/19 09:26:29;;;;;;;43.10;30.20;;;;;;;;;;5073333;28;20762;-68
2022/03/19 09:28:55;;;;;;;52.67;34.23;;;;;;;;;;5071765;28;20407;-68
2022/03/19 09:31:21;;;;;;;41.03;28.87;;;;;;;;;;5072948;28;20894;-73
2022/03/19 09:33:48;;;;;;;33.43;27.07;;;;;;;;;;5073061;28;20410;-74
2022/03/19 09:36:14;;;;;;;33.90;26.90;;;;;;;;;;5072979;28;20419;-73
2022/03/19 09:38:41;;;;;;;37.53;28.63;;;;;;;;;;5072944;28;20514;-71
2022/03/19 09:41:07;;;;;;;33.80;27.47;;;;;;;;;;5071661;28;20430;-71
2022/03/19 09:43:34;;;;;;;35.00;27.70;;;;;;;;;;5072837;28;20918;-70
2022/03/19 09:46:00;;;;;;;35.10;28.10;;;;;;;;;;5072893;28;20828;-73
2022/03/19 09:48:26;;;;;;;31.20;26.60;;;;;;;;;;5072840;28;20406;-74
2022/03/19 09:50:54;;;;;;;35.10;27.73;;;;;;;;;;5072689;28;20602;-73
2022/03/19 09:53:24;;;;;;;33.90;26.37;;;;;;;;;;5071612;28;20910;-75
2022/03/19 09:55:51;;;;;;;33.50;26.83;;;;;;;;;;5073506;28;20411;-73
2022/03/19 09:58:18;;;;;;;35.30;26.57;;;;;;;;;;5076602;28;20905;-74
2022/03/19 10:00:44;;;;;;;30.20;26.10;;;;;;;;;;5076521;28;20553;-73
2022/03/19 10:03:11;;;;;;;30.37;25.10;;;;;;;;;;5076509;28;20432;-73
2022/03/19 10:08:41;;;;;;;33.17;26.67;;;;;;;;;;5076592;28;20408;-74
2022/03/19 10:11:07;;;;;;;32.90;26.47;;;;;;;;;;5076501;28;20677;-69
2022/03/19 10:13:33;;;;;;;32.17;26.33;;;;;;;;;;5076277;28;20531;-74
2022/03/19 10:15:59;;;;;;;30.53;25.10;;;;;;;;;;5076214;28;20398;-69
2022/03/19 10:18:29;;;;;;;31.40;24.80;;;;;;;;;;5076147;28;20784;-69
2022/03/19 10:20:56;;;;;;;30.00;25.13;;;;;;;;;;5076177;28;20493;-69
2022/03/19 10:23:32;;;;;;;31.57;25.23;;;;;;;;;;5076097;28;20485;-66
2022/03/19 10:25:58;;;;;;;33.20;25.73;;;;;;;;;;5075779;28;20505;-66
2022/03/19 10:28:30;;;;;;;31.80;25.27;;;;;;;;;;5074690;28;20834;-66
2022/03/19 10:30:56;;;;;;;31.63;24.60;;;;;;;;;;5073495;28;20536;-67
2022/03/19 10:33:33;;;;;;;29.23;25.27;;;;;;;;;;5074509;28;20561;-66
2022/03/19 10:36:06;;;;;;;31.90;24.40;;;;;;;;;;5072280;28;20427;-67
2022/03/19 10:38:39;;;;;;;33.60;26.30;;;;;;;;;;5073002;28;20833;-70
2022/03/19 10:41:05;;;;;;;37.73;25.93;;;;;;;;;;5074918;28;20410;-68
2022/03/19 10:43:33;;;;;;;27.93;24.90;;;;;;;;;;5075711;28;20399;-68
2022/03/19 10:45:59;;;;;;;29.00;25.63;;;;;;;;;;5075819;28;20412;-70
2022/03/19 10:48:27;;;;;;;32.23;25.07;;;;;;;;;;5075592;28;20445;-68
2022/03/19 10:50:53;;;;;;;30.90;26.20;;;;;;;;;;5075511;28;20456;-69
2022/03/19 10:53:20;;;;;;;28.40;24.10;;;;;;;;;;5075918;28;20441;-72
2022/03/19 10:55:46;;;;;;;29.80;25.30;;;;;;;;;;5075140;28;20396;-73
2022/03/19 10:58:13;;;;;;;28.83;25.07;;;;;;;;;;5075192;28;20409;-73
2022/03/19 11:00:39;;;;;;;32.17;25.13;;;;;;;;;;5075093;28;20449;-73
2022/03/19 11:03:12;;;;;;;28.93;24.30;;;;;;;;;;5075081;28;20780;-71
2022/03/19 11:05:39;;;;;;;33.17;24.70;;;;;;;;;;5075114;28;20462;-73
2022/03/19 11:08:08;;;;;;;30.00;25.33;;;;;;;;;;5074080;28;20412;-71
2022/03/19 11:10:38;;;;;;;39.60;27.17;;;;;;;;;;5074853;28;20499;-71
2022/03/19 11:13:13;;;;;;;33.03;26.77;;;;;;;;;;5074976;28;20438;-76
2022/03/19 11:15:40;;;;;;;34.20;28.00;;;;;;;;;;5075024;28;20744;-69
2022/03/19 11:18:07;;;;;;;33.77;27.57;;;;;;;;;;5075007;28;20932;-73
2022/03/19 11:20:33;;;;;;;33.63;27.13;;;;;;;;;;5074693;28;20899;-73
2022/03/19 11:23:01;;;;;;;30.20;25.73;;;;;;;;;;5074707;28;20417;-74
2022/03/19 11:25:27;;;;;;;30.97;26.90;;;;;;;;;;5074049;28;20406;-72
2022/03/19 11:28:09;;;;;;;29.60;25.90;;;;;;;;;;5073510;28;20401;-72
2022/03/19 11:30:42;;;;;;;36.43;28.83;;;;;;;;;;5073528;28;20971;-70
2022/03/19 11:33:10;;;;;;;34.27;27.43;;;;;;;;;;5073721;28;20418;-71
2022/03/19 11:35:40;;;;;;;35.83;28.97;;;;;;;;;;5070848;28;20415;-71
2022/03/19 11:38:06;;;;;;;30.07;26.53;;;;;;;;;;5073497;28;20451;-68
2022/03/19 11:40:33;;;;;;;30.43;27.07;;;;;;;;;;5073173;28;20437;-74
2022/03/19 11:43:05;;;;;;;32.03;26.60;;;;;;;;;;5073268;28;20438;-73
2022/03/19 11:45:38;;;;;;;29.90;26.80;;;;;;;;;;5073175;28;20405;-72
2022/03/19 11:48:05;;;;;;;30.50;27.13;;;;;;;;;;5073490;28;20424;-74
2022/03/19 11:50:31;;;;;;;30.00;25.23;;;;;;;;;;5073177;28;20492;-75
2022/03/19 11:52:57;;;;;;;28.30;25.40;;;;;;;;;;5073118;28;20423;-74
2022/03/19 11:55:24;;;;;;;28.87;25.83;;;;;;;;;;5073075;28;20407;-72
2022/03/19 11:58:00;;;;;;;32.53;27.27;;;;;;;;;;5071615;28;20442;-73
2022/03/19 12:00:27;;;;;;;28.17;25.37;;;;;;;;;;5072959;28;20890;-72
2022/03/19 12:03:04;;;;;;;28.70;25.67;;;;;;;;;;5072627;28;20465;-67
2022/03/19 12:05:30;;;;;;;29.33;26.40;;;;;;;;;;5072644;28;20408;-69
2022/03/19 12:08:00;;;;;;;32.60;26.83;;;;;;;;;;5071194;28;20437;-69
2022/03/19 12:10:31;;;;;;;29.87;26.33;;;;;;;;;;5072613;28;20468;-72
2022/03/19 12:12:58;;;;;;;29.03;26.13;;;;;;;;;;5070181;28;20422;-71
2022/03/19 12:15:33;;;;;;;39.27;25.90;;;;;;;;;;5072447;28;20418;-71
2022/03/19 12:18:17;;;;;;;27.77;24.83;;;;;;;;;;5070110;28;20910;-70
2022/03/19 12:20:44;;;;;;;28.33;25.53;;;;;;;;;;5070778;28;21093;-71
2022/03/19 12:23:11;;;;;;;31.87;26.90;;;;;;;;;;5072705;28;20796;-70
2022/03/19 12:25:42;;;;;;;27.70;25.00;;;;;;;;;;5072447;28;20460;-71
2022/03/19 12:28:08;;;;;;;26.73;23.83;;;;;;;;;;5072151;28;20429;-69
2022/03/19 12:30:35;;;;;;;26.70;23.90;;;;;;;;;;5073714;28;20539;-70
2022/03/19 12:33:01;;;;;;;28.03;25.13;;;;;;;;;;5073607;28;20453;-69
2022/03/19 12:35:43;;;;;;;27.47;24.60;;;;;;;;;;5073423;28;20425;-71
2022/03/19 12:38:10;;;;;;;27.90;24.93;;;;;;;;;;5073373;28;20512;-68
2022/03/19 12:43:22;;;;;;;27.87;24.87;;;;;;;;;;5073344;28;20401;-68
2022/03/19 12:45:52;;;;;;;30.73;25.70;;;;;;;;;;5073607;28;20430;-68
2022/03/19 12:48:19;;;;;;;28.17;24.63;;;;;;;;;;5073411;28;20410;-69
2022/03/19 12:50:48;;;;;;;36.70;25.03;;;;;;;;;;5073323;28;20454;-71
2022/03/19 12:53:14;;;;;;;27.87;24.77;;;;;;;;;;5073400;28;20931;-68
2022/03/19 12:55:40;;;;;;;27.23;24.30;;;;;;;;;;5073383;28;20430;-70
2022/03/19 12:58:07;;;;;;;38.30;24.23;;;;;;;;;;5073351;28;20449;-69
2022/03/19 13:00:33;;;;;;;28.03;24.60;;;;;;;;;;5073339;28;20440;-69
2022/03/19 13:02:59;;;;;;;28.40;24.57;;;;;;;;;;5072007;28;20791;-69
2022/03/19 13:05:25;;;;;;;27.80;23.63;;;;;;;;;;5073307;28;20465;-68
2022/03/19 13:08:09;;;;;;;29.20;24.90;;;;;;;;;;5073130;28;20413;-68
2022/03/19 13:10:50;;;;;;;25.33;22.43;;;;;;;;;;5073046;28;20484;-71
2022/03/19 13:13:18;;;;;;;28.70;22.50;;;;;;;;;;5072600;28;20415;-68
2022/03/19 13:15:54;;;;;;;32.00;24.03;;;;;;;;;;5072451;28;20402;-70
2022/03/19 13:18:27;;;;;;;28.47;23.20;;;;;;;;;;5073019;28;20845;-72
2022/03/19 13:21:21;;;;;;;30.60;23.60;;;;;;;;;;5073079;28;20400;-71
2022/03/19 13:23:47;;;;;;;27.63;24.13;;;;;;;;;;5070779;28;20424;-71
2022/03/19 13:26:16;;;;;;;27.30;24.20;;;;;;;;;;5073005;28;20532;-71
2022/03/19 13:29:00;;;;;;;26.10;22.37;;;;;;;;;;5073234;28;20869;-71
2022/03/19 13:31:26;;;;;;;31.83;23.17;;;;;;;;;;5074848;28;20475;-72
2022/03/19 13:33:52;;;;;;;25.07;21.90;;;;;;;;;;5076126;28;20421;-69
2022/03/19 13:36:18;;;;;;;27.37;24.30;;;;;;;;;;5077133;28;20415;-69
2022/03/19 13:38:45;;;;;;;31.27;23.10;;;;;;;;;;5076886;28;20521;-69
2022/03/19 13:41:18;;;;;;;25.03;22.33;;;;;;;;;;5076883;28;20507;-71
2022/03/19 13:43:44;;;;;;;25.83;22.43;;;;;;;;;;5076947;28;20432;-70
2022/03/19 13:46:11;;;;;;;28.50;23.20;;;;;;;;;;5076884;28;20416;-68
2022/03/19 13:48:37;;;;;;;24.20;21.50;;;;;;;;;;5076785;28;20469;-70
2022/03/19 13:51:03;;;;;;;30.50;23.03;;;;;;;;;;5076972;28;20515;-69
2022/03/19 13:53:51;;;;;;;37.87;22.97;;;;;;;;;;5076878;28;20398;-69
2022/03/19 13:56:17;;;;;;;28.03;21.23;;;;;;;;;;5076632;28;20399;-71
2022/03/19 13:58:59;;;;;;;29.43;21.97;;;;;;;;;;5076662;28;20404;-71
2022/03/19 14:01:30;;;;;;;25.83;21.37;;;;;;;;;;5076608;28;20961;-73
2022/03/19 14:03:56;;;;;;;27.60;21.40;;;;;;;;;;5076533;28;20416;-70
2022/03/19 14:06:31;;;;;;;26.07;20.47;;;;;;;;;;5076487;28;20404;-75
2022/03/19 14:08:58;;;;;;;26.17;21.27;;;;;;;;;;5076714;28;20397;-72
2022/03/19 14:11:36;;;;;;;29.70;22.80;;;;;;;;;;5076328;28;20823;-69
2022/03/19 14:14:02;;;;;;;28.23;21.53;;;;;;;;;;5075105;28;20424;-70
2022/03/19 14:16:28;;;;;;;30.93;21.70;;;;;;;;;;5076314;28;20424;-70
2022/03/19 14:18:58;;;;;;;26.43;20.43;;;;;;;;;;5076281;28;20801;-70
2022/03/19 14:21:24;;;;;;;27.47;20.00;;;;;;;;;;5076183;28;20475;-69
2022/03/19 14:23:50;;;;;;;24.13;19.73;;;;;;;;;;5076260;28;20413;-69
2022/03/19 14:26:16;;;;;;;26.60;18.50;;;;;;;;;;5076168;28;20420;-72
2022/03/19 14:28:42;;;;;;;24.50;20.17;;;;;;;;;;5076168;28;20411;-71
2022/03/19 14:31:08;;;;;;;19.40;17.30;;;;;;;;;;5075971;28;20475;-70
2022/03/19 14:33:34;;;;;;;26.33;18.67;;;;;;;;;;5075972;28;20471;-70
2022/03/19 14:36:04;;;;;;;26.10;16.03;;;;;;;;;;5075835;28;20417;-68